sensor_id;sensor_type;location;lat;lon;timestamp;P1;durP1;ratioP1;P2;durP2;ratioP2
74102;SDS011;62853;46.166;3.640;2023-01-25T00:02:04;56.83;;;33.75;;
74102;SDS011;62853;46.166;3.640;2023-01-25T00:04:30;54.92;;;32.63;;
74102;SDS011;62853;46.166;3.640;2023-01-25T00:06:55;57.78;;;34.47;;
74102;SDS011;62853;46.166;3.640;2023-01-25T00:09:22;61.10;;;37.40;;
74102;SDS011;62853;46.166;3.640;2023-01-25T00:11:49;62.95;;;37.47;;
74102;SDS011;62853;46.166;3.640;2023-01-25T00:14:14;63.03;;;37.78;;
74102;SDS011;62853;46.166;3.640;2023-01-25T00:16:40;60.17;;;35.40;;
74102;SDS011;62853;46.166;3.640;2023-01-25T00:19:06;60.40;;;35.38;;
74102;SDS011;62853;46.166;3.640;2023-01-25T00:21:33;61.17;;;36.78;;
74102;SDS011;62853;46.166;3.640;2023-01-25T00:23:59;58.40;;;34.60;;
74102;SDS011;62853;46.166;3.640;2023-01-25T00:26:25;58.10;;;34.63;;
74102;SDS011;62853;46.166;3.640;2023-01-25T00:28:53;55.65;;;32.65;;
74102;SDS011;62853;46.166;3.640;2023-01-25T00:31:30;58.47;;;35.08;;
74102;SDS011;62853;46.166;3.640;2023-01-25T00:34:00;68.57;;;39.65;;
74102;SDS011;62853;46.166;3.640;2023-01-25T00:39:02;59.42;;;33.92;;
74102;SDS011;62853;46.166;3.640;2023-01-25T00:41:31;62.42;;;37.30;;
74102;SDS011;62853;46.166;3.640;2023-01-25T00:43:56;58.65;;;35.90;;
74102;SDS011;62853;46.166;3.640;2023-01-25T00:46:22;57.72;;;33.47;;
74102;SDS011;62853;46.166;3.640;2023-01-25T00:48:48;54.67;;;33.38;;
74102;SDS011;62853;46.166;3.640;2023-01-25T00:51:16;55.50;;;33.47;;
74102;SDS011;62853;46.166;3.640;2023-01-25T00:53:42;56.28;;;33.88;;
74102;SDS011;62853;46.166;3.640;2023-01-25T00:56:07;52.97;;;32.78;;
74102;SDS011;62853;46.166;3.640;2023-01-25T00:58:32;57.47;;;35.20;;
74102;SDS011;62853;46.166;3.640;2023-01-25T01:00:58;57.97;;;33.85;;
74102;SDS011;62853;46.166;3.640;2023-01-25T01:03:23;56.92;;;33.88;;
74102;SDS011;62853;46.166;3.640;2023-01-25T01:06:08;61.70;;;37.80;;
74102;SDS011;62853;46.166;3.640;2023-01-25T01:08:38;54.70;;;32.85;;
74102;SDS011;62853;46.166;3.640;2023-01-25T01:11:06;56.63;;;33.40;;
74102;SDS011;62853;46.166;3.640;2023-01-25T01:13:33;61.28;;;35.97;;
74102;SDS011;62853;46.166;3.640;2023-01-25T01:15:59;59.72;;;35.75;;
74102;SDS011;62853;46.166;3.640;2023-01-25T01:18:27;51.63;;;31.20;;
74102;SDS011;62853;46.166;3.640;2023-01-25T01:21:05;53.03;;;31.08;;
74102;SDS011;62853;46.166;3.640;2023-01-25T01:23:30;49.88;;;31.02;;
74102;SDS011;62853;46.166;3.640;2023-01-25T01:26:03;53.30;;;32.38;;
74102;SDS011;62853;46.166;3.640;2023-01-25T01:28:31;53.13;;;31.20;;
74102;SDS011;62853;46.166;3.640;2023-01-25T01:31:00;50.33;;;29.67;;
74102;SDS011;62853;46.166;3.640;2023-01-25T01:33:27;59.08;;;34.08;;
74102;SDS011;62853;46.166;3.640;2023-01-25T01:35:52;61.92;;;35.47;;
74102;SDS011;62853;46.166;3.640;2023-01-25T01:38:18;60.13;;;34.85;;
74102;SDS011;62853;46.166;3.640;2023-01-25T01:40:46;60.90;;;35.10;;
74102;SDS011;62853;46.166;3.640;2023-01-25T01:43:19;65.20;;;36.03;;
74102;SDS011;62853;46.166;3.640;2023-01-25T01:48:20;63.30;;;34.53;;
74102;SDS011;62853;46.166;3.640;2023-01-25T01:51:02;61.13;;;35.25;;
74102;SDS011;62853;46.166;3.640;2023-01-25T01:53:36;60.75;;;34.88;;
74102;SDS011;62853;46.166;3.640;2023-01-25T01:56:04;58.33;;;33.35;;
74102;SDS011;62853;46.166;3.640;2023-01-25T01:58:35;55.78;;;31.35;;
74102;SDS011;62853;46.166;3.640;2023-01-25T02:01:01;54.67;;;31.98;;
74102;SDS011;62853;46.166;3.640;2023-01-25T02:03:27;56.75;;;32.05;;
74102;SDS011;62853;46.166;3.640;2023-01-25T02:05:55;48.17;;;27.65;;
74102;SDS011;62853;46.166;3.640;2023-01-25T02:10:54;48.53;;;28.55;;
74102;SDS011;62853;46.166;3.640;2023-01-25T02:13:20;54.42;;;31.67;;
74102;SDS011;62853;46.166;3.640;2023-01-25T02:15:46;52.47;;;31.00;;
74102;SDS011;62853;46.166;3.640;2023-01-25T02:18:14;54.10;;;31.77;;
74102;SDS011;62853;46.166;3.640;2023-01-25T02:20:42;52.00;;;30.85;;
74102;SDS011;62853;46.166;3.640;2023-01-25T02:28:26;50.72;;;30.35;;
74102;SDS011;62853;46.166;3.640;2023-01-25T02:30:56;51.75;;;30.05;;
74102;SDS011;62853;46.166;3.640;2023-01-25T02:33:25;53.20;;;30.92;;
74102;SDS011;62853;46.166;3.640;2023-01-25T02:35:59;54.28;;;30.80;;
74102;SDS011;62853;46.166;3.640;2023-01-25T02:38:44;54.33;;;30.75;;
74102;SDS011;62853;46.166;3.640;2023-01-25T02:41:27;55.92;;;31.33;;
74102;SDS011;62853;46.166;3.640;2023-01-25T02:43:57;62.67;;;35.10;;
74102;SDS011;62853;46.166;3.640;2023-01-25T02:46:28;67.68;;;38.05;;
74102;SDS011;62853;46.166;3.640;2023-01-25T02:48:56;67.07;;;37.07;;
74102;SDS011;62853;46.166;3.640;2023-01-25T02:51:23;68.38;;;37.15;;
74102;SDS011;62853;46.166;3.640;2023-01-25T02:53:50;64.93;;;37.00;;
74102;SDS011;62853;46.166;3.640;2023-01-25T02:56:16;62.35;;;34.67;;
74102;SDS011;62853;46.166;3.640;2023-01-25T02:58:42;62.55;;;34.17;;
74102;SDS011;62853;46.166;3.640;2023-01-25T03:01:08;55.53;;;31.48;;
74102;SDS011;62853;46.166;3.640;2023-01-25T03:03:34;60.60;;;33.97;;
74102;SDS011;62853;46.166;3.640;2023-01-25T03:06:00;66.05;;;37.40;;
74102;SDS011;62853;46.166;3.640;2023-01-25T03:08:25;61.55;;;34.58;;
74102;SDS011;62853;46.166;3.640;2023-01-25T03:10:54;64.32;;;36.08;;
74102;SDS011;62853;46.166;3.640;2023-01-25T03:13:20;65.70;;;38.55;;
74102;SDS011;62853;46.166;3.640;2023-01-25T03:15:46;63.20;;;36.00;;
74102;SDS011;62853;46.166;3.640;2023-01-25T03:18:11;63.78;;;36.63;;
74102;SDS011;62853;46.166;3.640;2023-01-25T03:20:36;62.17;;;35.28;;
74102;SDS011;62853;46.166;3.640;2023-01-25T03:23:02;63.72;;;35.38;;
74102;SDS011;62853;46.166;3.640;2023-01-25T03:25:27;64.15;;;35.20;;
74102;SDS011;62853;46.166;3.640;2023-01-25T03:27:52;62.08;;;35.38;;
74102;SDS011;62853;46.166;3.640;2023-01-25T03:30:18;64.10;;;36.05;;
74102;SDS011;62853;46.166;3.640;2023-01-25T03:32:44;67.93;;;38.55;;
74102;SDS011;62853;46.166;3.640;2023-01-25T03:35:09;63.38;;;34.55;;
74102;SDS011;62853;46.166;3.640;2023-01-25T03:37:34;72.60;;;43.72;;
74102;SDS011;62853;46.166;3.640;2023-01-25T03:40:00;70.78;;;40.35;;
74102;SDS011;62853;46.166;3.640;2023-01-25T03:42:25;73.50;;;40.95;;
74102;SDS011;62853;46.166;3.640;2023-01-25T03:44:51;69.47;;;39.22;;
74102;SDS011;62853;46.166;3.640;2023-01-25T03:47:16;78.20;;;45.28;;
74102;SDS011;62853;46.166;3.640;2023-01-25T03:49:41;70.65;;;38.60;;
74102;SDS011;62853;46.166;3.640;2023-01-25T03:52:07;68.97;;;37.08;;
74102;SDS011;62853;46.166;3.640;2023-01-25T03:54:33;73.97;;;40.95;;
74102;SDS011;62853;46.166;3.640;2023-01-25T03:56:58;65.13;;;36.65;;
74102;SDS011;62853;46.166;3.640;2023-01-25T03:59:24;59.72;;;32.63;;
74102;SDS011;62853;46.166;3.640;2023-01-25T04:01:50;59.47;;;34.25;;
74102;SDS011;62853;46.166;3.640;2023-01-25T04:04:15;59.13;;;33.58;;
74102;SDS011;62853;46.166;3.640;2023-01-25T04:06:41;54.80;;;30.20;;
74102;SDS011;62853;46.166;3.640;2023-01-25T04:09:06;55.83;;;31.45;;
74102;SDS011;62853;46.166;3.640;2023-01-25T04:11:32;56.78;;;31.52;;
74102;SDS011;62853;46.166;3.640;2023-01-25T04:13:57;56.80;;;32.70;;
74102;SDS011;62853;46.166;3.640;2023-01-25T04:16:23;59.15;;;34.28;;
74102;SDS011;62853;46.166;3.640;2023-01-25T04:18:48;62.90;;;35.53;;
74102;SDS011;62853;46.166;3.640;2023-01-25T04:21:13;74.03;;;40.75;;
74102;SDS011;62853;46.166;3.640;2023-01-25T04:23:39;67.68;;;36.42;;
74102;SDS011;62853;46.166;3.640;2023-01-25T04:26:05;61.97;;;33.55;;
74102;SDS011;62853;46.166;3.640;2023-01-25T04:28:32;62.83;;;34.75;;
74102;SDS011;62853;46.166;3.640;2023-01-25T04:30:58;63.00;;;35.72;;
74102;SDS011;62853;46.166;3.640;2023-01-25T04:33:25;61.38;;;34.20;;
74102;SDS011;62853;46.166;3.640;2023-01-25T04:35:50;59.33;;;33.08;;
74102;SDS011;62853;46.166;3.640;2023-01-25T04:38:16;56.47;;;32.33;;
74102;SDS011;62853;46.166;3.640;2023-01-25T04:40:42;57.15;;;31.85;;
74102;SDS011;62853;46.166;3.640;2023-01-25T04:43:08;57.30;;;31.95;;
74102;SDS011;62853;46.166;3.640;2023-01-25T04:45:35;60.90;;;32.80;;
74102;SDS011;62853;46.166;3.640;2023-01-25T04:48:01;67.07;;;35.42;;
74102;SDS011;62853;46.166;3.640;2023-01-25T04:50:28;65.82;;;35.10;;
74102;SDS011;62853;46.166;3.640;2023-01-25T04:52:54;63.70;;;34.67;;
74102;SDS011;62853;46.166;3.640;2023-01-25T04:55:19;67.40;;;36.80;;
74102;SDS011;62853;46.166;3.640;2023-01-25T04:57:47;68.72;;;37.28;;
74102;SDS011;62853;46.166;3.640;2023-01-25T05:00:14;65.38;;;35.28;;
74102;SDS011;62853;46.166;3.640;2023-01-25T05:02:40;67.55;;;37.42;;
74102;SDS011;62853;46.166;3.640;2023-01-25T05:05:06;63.00;;;34.38;;
74102;SDS011;62853;46.166;3.640;2023-01-25T05:07:32;64.68;;;35.42;;
74102;SDS011;62853;46.166;3.640;2023-01-25T05:09:58;61.97;;;35.00;;
74102;SDS011;62853;46.166;3.640;2023-01-25T05:12:23;65.53;;;36.45;;
74102;SDS011;62853;46.166;3.640;2023-01-25T05:14:49;66.97;;;34.88;;
74102;SDS011;62853;46.166;3.640;2023-01-25T05:17:14;80.18;;;44.00;;
74102;SDS011;62853;46.166;3.640;2023-01-25T05:19:40;88.82;;;46.50;;
74102;SDS011;62853;46.166;3.640;2023-01-25T05:22:06;81.90;;;43.03;;
74102;SDS011;62853;46.166;3.640;2023-01-25T05:24:32;79.45;;;44.95;;
74102;SDS011;62853;46.166;3.640;2023-01-25T05:26:59;82.57;;;43.63;;
74102;SDS011;62853;46.166;3.640;2023-01-25T05:29:27;78.50;;;41.38;;
74102;SDS011;62853;46.166;3.640;2023-01-25T05:32:00;76.07;;;41.00;;
74102;SDS011;62853;46.166;3.640;2023-01-25T05:34:26;71.13;;;38.55;;
74102;SDS011;62853;46.166;3.640;2023-01-25T05:36:52;74.05;;;40.50;;
74102;SDS011;62853;46.166;3.640;2023-01-25T05:39:17;72.88;;;38.00;;
74102;SDS011;62853;46.166;3.640;2023-01-25T05:41:43;73.20;;;39.70;;
74102;SDS011;62853;46.166;3.640;2023-01-25T05:44:08;72.68;;;38.83;;
74102;SDS011;62853;46.166;3.640;2023-01-25T05:46:33;76.82;;;40.80;;
74102;SDS011;62853;46.166;3.640;2023-01-25T05:48:59;81.20;;;41.88;;
74102;SDS011;62853;46.166;3.640;2023-01-25T05:51:24;78.20;;;43.08;;
74102;SDS011;62853;46.166;3.640;2023-01-25T05:53:50;84.80;;;46.00;;
74102;SDS011;62853;46.166;3.640;2023-01-25T05:56:19;97.75;;;54.25;;
74102;SDS011;62853;46.166;3.640;2023-01-25T05:58:44;95.95;;;51.28;;
74102;SDS011;62853;46.166;3.640;2023-01-25T06:01:10;84.75;;;45.70;;
74102;SDS011;62853;46.166;3.640;2023-01-25T06:03:35;95.88;;;48.40;;
74102;SDS011;62853;46.166;3.640;2023-01-25T06:06:01;105.38;;;59.65;;
74102;SDS011;62853;46.166;3.640;2023-01-25T06:08:30;99.18;;;52.55;;
74102;SDS011;62853;46.166;3.640;2023-01-25T06:10:56;86.57;;;46.45;;
74102;SDS011;62853;46.166;3.640;2023-01-25T06:13:22;91.47;;;48.33;;
74102;SDS011;62853;46.166;3.640;2023-01-25T06:15:54;85.35;;;45.10;;
74102;SDS011;62853;46.166;3.640;2023-01-25T06:18:21;86.47;;;46.22;;
74102;SDS011;62853;46.166;3.640;2023-01-25T06:20:48;84.22;;;43.28;;
74102;SDS011;62853;46.166;3.640;2023-01-25T06:23:14;73.82;;;39.45;;
74102;SDS011;62853;46.166;3.640;2023-01-25T06:25:39;88.40;;;47.17;;
74102;SDS011;62853;46.166;3.640;2023-01-25T06:28:05;92.78;;;50.38;;
74102;SDS011;62853;46.166;3.640;2023-01-25T06:30:30;87.97;;;44.75;;
74102;SDS011;62853;46.166;3.640;2023-01-25T06:32:58;80.93;;;40.83;;
74102;SDS011;62853;46.166;3.640;2023-01-25T06:35:25;78.72;;;42.42;;
74102;SDS011;62853;46.166;3.640;2023-01-25T06:37:53;74.60;;;40.25;;
74102;SDS011;62853;46.166;3.640;2023-01-25T06:40:19;76.55;;;40.70;;
74102;SDS011;62853;46.166;3.640;2023-01-25T06:42:45;75.50;;;39.08;;
74102;SDS011;62853;46.166;3.640;2023-01-25T06:45:10;87.53;;;49.28;;
74102;SDS011;62853;46.166;3.640;2023-01-25T06:47:36;81.63;;;43.10;;
74102;SDS011;62853;46.166;3.640;2023-01-25T06:50:01;77.43;;;40.42;;
74102;SDS011;62853;46.166;3.640;2023-01-25T06:52:26;78.18;;;41.35;;
74102;SDS011;62853;46.166;3.640;2023-01-25T06:54:52;74.03;;;38.47;;
74102;SDS011;62853;46.166;3.640;2023-01-25T06:57:17;73.72;;;40.08;;
74102;SDS011;62853;46.166;3.640;2023-01-25T06:59:42;73.78;;;37.50;;
74102;SDS011;62853;46.166;3.640;2023-01-25T07:02:10;65.28;;;35.20;;
74102;SDS011;62853;46.166;3.640;2023-01-25T07:04:39;71.97;;;37.58;;
74102;SDS011;62853;46.166;3.640;2023-01-25T07:07:06;65.75;;;35.10;;
74102;SDS011;62853;46.166;3.640;2023-01-25T07:09:33;66.45;;;36.28;;
74102;SDS011;62853;46.166;3.640;2023-01-25T07:11:58;70.85;;;37.75;;
74102;SDS011;62853;46.166;3.640;2023-01-25T07:14:23;64.47;;;35.05;;
74102;SDS011;62853;46.166;3.640;2023-01-25T07:16:49;71.35;;;37.65;;
74102;SDS011;62853;46.166;3.640;2023-01-25T07:19:14;67.45;;;35.42;;
74102;SDS011;62853;46.166;3.640;2023-01-25T07:21:41;67.70;;;36.40;;
74102;SDS011;62853;46.166;3.640;2023-01-25T07:24:09;68.55;;;36.28;;
74102;SDS011;62853;46.166;3.640;2023-01-25T07:26:38;68.45;;;36.22;;
74102;SDS011;62853;46.166;3.640;2023-01-25T07:29:03;63.85;;;33.88;;
74102;SDS011;62853;46.166;3.640;2023-01-25T07:31:28;66.75;;;34.83;;
74102;SDS011;62853;46.166;3.640;2023-01-25T07:33:54;63.08;;;34.17;;
74102;SDS011;62853;46.166;3.640;2023-01-25T07:36:21;64.57;;;34.17;;
74102;SDS011;62853;46.166;3.640;2023-01-25T07:38:47;76.50;;;40.83;;
74102;SDS011;62853;46.166;3.640;2023-01-25T07:41:13;77.57;;;39.42;;
74102;SDS011;62853;46.166;3.640;2023-01-25T07:43:40;79.90;;;41.85;;
74102;SDS011;62853;46.166;3.640;2023-01-25T07:46:07;79.78;;;40.83;;
74102;SDS011;62853;46.166;3.640;2023-01-25T07:48:37;69.57;;;36.15;;
74102;SDS011;62853;46.166;3.640;2023-01-25T07:51:05;70.75;;;38.10;;
74102;SDS011;62853;46.166;3.640;2023-01-25T07:53:47;71.40;;;38.65;;
74102;SDS011;62853;46.166;3.640;2023-01-25T07:56:24;72.75;;;37.20;;
74102;SDS011;62853;46.166;3.640;2023-01-25T07:58:51;67.15;;;35.25;;
74102;SDS011;62853;46.166;3.640;2023-01-25T08:01:18;68.85;;;36.42;;
74102;SDS011;62853;46.166;3.640;2023-01-25T08:03:45;64.07;;;33.40;;
74102;SDS011;62853;46.166;3.640;2023-01-25T08:06:11;65.43;;;34.95;;
74102;SDS011;62853;46.166;3.640;2023-01-25T08:08:38;64.85;;;34.25;;
74102;SDS011;62853;46.166;3.640;2023-01-25T08:11:11;73.07;;;36.30;;
74102;SDS011;62853;46.166;3.640;2023-01-25T08:13:41;71.40;;;38.60;;
74102;SDS011;62853;46.166;3.640;2023-01-25T08:16:11;76.13;;;37.55;;
74102;SDS011;62853;46.166;3.640;2023-01-25T08:18:40;75.05;;;37.63;;
74102;SDS011;62853;46.166;3.640;2023-01-25T08:21:06;80.00;;;41.63;;
74102;SDS011;62853;46.166;3.640;2023-01-25T08:23:32;78.00;;;39.83;;
74102;SDS011;62853;46.166;3.640;2023-01-25T08:26:06;70.22;;;35.28;;
74102;SDS011;62853;46.166;3.640;2023-01-25T08:28:33;90.53;;;46.28;;
74102;SDS011;62853;46.166;3.640;2023-01-25T08:31:10;83.80;;;41.45;;
74102;SDS011;62853;46.166;3.640;2023-01-25T08:33:38;82.13;;;41.40;;
74102;SDS011;62853;46.166;3.640;2023-01-25T08:36:04;80.15;;;39.58;;
74102;SDS011;62853;46.166;3.640;2023-01-25T08:38:32;75.35;;;37.33;;
74102;SDS011;62853;46.166;3.640;2023-01-25T08:41:11;79.55;;;39.97;;
74102;SDS011;62853;46.166;3.640;2023-01-25T08:43:38;78.80;;;40.40;;
74102;SDS011;62853;46.166;3.640;2023-01-25T08:46:04;80.40;;;39.58;;
74102;SDS011;62853;46.166;3.640;2023-01-25T08:48:30;71.82;;;35.70;;
74102;SDS011;62853;46.166;3.640;2023-01-25T08:50:56;75.47;;;38.00;;
74102;SDS011;62853;46.166;3.640;2023-01-25T08:53:21;68.43;;;34.90;;
74102;SDS011;62853;46.166;3.640;2023-01-25T08:55:47;73.38;;;35.67;;
74102;SDS011;62853;46.166;3.640;2023-01-25T08:58:13;73.75;;;38.08;;
74102;SDS011;62853;46.166;3.640;2023-01-25T09:00:40;78.43;;;39.90;;
74102;SDS011;62853;46.166;3.640;2023-01-25T09:03:06;75.38;;;38.30;;
74102;SDS011;62853;46.166;3.640;2023-01-25T09:05:32;77.97;;;38.05;;
74102;SDS011;62853;46.166;3.640;2023-01-25T09:07:58;76.00;;;38.33;;
74102;SDS011;62853;46.166;3.640;2023-01-25T09:10:24;76.10;;;38.20;;
74102;SDS011;62853;46.166;3.640;2023-01-25T09:12:50;74.53;;;36.83;;
74102;SDS011;62853;46.166;3.640;2023-01-25T09:15:15;73.13;;;36.92;;
74102;SDS011;62853;46.166;3.640;2023-01-25T09:17:40;72.78;;;37.15;;
74102;SDS011;62853;46.166;3.640;2023-01-25T09:20:06;84.05;;;43.20;;
74102;SDS011;62853;46.166;3.640;2023-01-25T09:22:33;78.80;;;40.28;;
74102;SDS011;62853;46.166;3.640;2023-01-25T09:24:58;76.15;;;38.72;;
74102;SDS011;62853;46.166;3.640;2023-01-25T09:27:23;74.80;;;37.92;;
74102;SDS011;62853;46.166;3.640;2023-01-25T09:29:49;76.47;;;39.58;;
74102;SDS011;62853;46.166;3.640;2023-01-25T09:32:14;84.15;;;42.22;;
74102;SDS011;62853;46.166;3.640;2023-01-25T09:34:40;82.72;;;42.10;;
74102;SDS011;62853;46.166;3.640;2023-01-25T09:37:05;78.15;;;40.28;;
74102;SDS011;62853;46.166;3.640;2023-01-25T09:39:30;79.38;;;41.58;;
74102;SDS011;62853;46.166;3.640;2023-01-25T09:47:20;72.75;;;36.60;;
74102;SDS011;62853;46.166;3.640;2023-01-25T09:50:16;73.63;;;38.47;;
74102;SDS011;62853;46.166;3.640;2023-01-25T09:53:04;77.68;;;37.92;;
74102;SDS011;62853;46.166;3.640;2023-01-25T09:55:39;75.93;;;37.13;;
74102;SDS011;62853;46.166;3.640;2023-01-25T09:58:08;83.65;;;40.95;;
74102;SDS011;62853;46.166;3.640;2023-01-25T10:00:44;81.18;;;39.80;;
74102;SDS011;62853;46.166;3.640;2023-01-25T10:03:30;74.55;;;37.00;;
74102;SDS011;62853;46.166;3.640;2023-01-25T10:06:02;73.80;;;37.33;;
74102;SDS011;62853;46.166;3.640;2023-01-25T10:11:26;79.68;;;38.47;;
74102;SDS011;62853;46.166;3.640;2023-01-25T10:13:54;76.93;;;38.75;;
74102;SDS011;62853;46.166;3.640;2023-01-25T10:16:29;73.75;;;36.08;;
74102;SDS011;62853;46.166;3.640;2023-01-25T10:19:04;68.20;;;33.88;;
74102;SDS011;62853;46.166;3.640;2023-01-25T10:21:40;74.82;;;37.22;;
74102;SDS011;62853;46.166;3.640;2023-01-25T10:29:45;82.72;;;42.13;;
74102;SDS011;62853;46.166;3.640;2023-01-25T10:32:17;78.70;;;39.50;;
74102;SDS011;62853;46.166;3.640;2023-01-25T10:34:45;73.63;;;37.17;;
74102;SDS011;62853;46.166;3.640;2023-01-25T10:37:14;75.30;;;38.30;;
74102;SDS011;62853;46.166;3.640;2023-01-25T10:40:02;77.32;;;40.10;;
74102;SDS011;62853;46.166;3.640;2023-01-25T10:42:29;71.53;;;38.25;;
74102;SDS011;62853;46.166;3.640;2023-01-25T10:45:01;88.95;;;47.20;;
74102;SDS011;62853;46.166;3.640;2023-01-25T10:47:26;81.80;;;40.20;;
74102;SDS011;62853;46.166;3.640;2023-01-25T10:49:56;80.43;;;40.40;;
74102;SDS011;62853;46.166;3.640;2023-01-25T10:52:23;84.78;;;41.05;;
74102;SDS011;62853;46.166;3.640;2023-01-25T10:57:40;76.40;;;39.30;;
74102;SDS011;62853;46.166;3.640;2023-01-25T11:00:13;75.43;;;36.88;;
74102;SDS011;62853;46.166;3.640;2023-01-25T11:02:44;79.43;;;41.15;;
74102;SDS011;62853;46.166;3.640;2023-01-25T11:07:42;73.25;;;37.00;;
74102;SDS011;62853;46.166;3.640;2023-01-25T11:10:25;69.63;;;36.47;;
74102;SDS011;62853;46.166;3.640;2023-01-25T11:13:36;81.57;;;39.55;;
74102;SDS011;62853;46.166;3.640;2023-01-25T11:15:42;80.70;;;39.47;;
74102;SDS011;62853;46.166;3.640;2023-01-25T11:18:18;79.82;;;39.05;;
74102;SDS011;62853;46.166;3.640;2023-01-25T11:20:44;73.88;;;36.17;;
74102;SDS011;62853;46.166;3.640;2023-01-25T11:23:22;85.55;;;46.13;;
74102;SDS011;62853;46.166;3.640;2023-01-25T11:25:49;85.55;;;41.38;;
74102;SDS011;62853;46.166;3.640;2023-01-25T11:30:43;77.45;;;37.75;;
74102;SDS011;62853;46.166;3.640;2023-01-25T11:33:13;82.05;;;41.03;;
74102;SDS011;62853;46.166;3.640;2023-01-25T11:39:03;71.78;;;35.72;;
74102;SDS011;62853;46.166;3.640;2023-01-25T11:47:27;71.95;;;36.55;;
74102;SDS011;62853;46.166;3.640;2023-01-25T11:52:52;73.65;;;37.90;;
74102;SDS011;62853;46.166;3.640;2023-01-25T12:00:31;67.88;;;33.45;;
74102;SDS011;62853;46.166;3.640;2023-01-25T12:14:37;85.00;;;41.78;;
74102;SDS011;62853;46.166;3.640;2023-01-25T12:20:12;86.05;;;42.40;;
74102;SDS011;62853;46.166;3.640;2023-01-25T12:26:03;71.28;;;36.38;;
74102;SDS011;62853;46.166;3.640;2023-01-25T12:32:13;74.82;;;38.38;;
74102;SDS011;62853;46.166;3.640;2023-01-25T12:34:49;88.28;;;47.05;;
74102;SDS011;62853;46.166;3.640;2023-01-25T12:37:29;78.03;;;38.95;;
74102;SDS011;62853;46.166;3.640;2023-01-25T12:40:03;85.27;;;41.50;;
74102;SDS011;62853;46.166;3.640;2023-01-25T12:42:49;81.68;;;39.97;;
74102;SDS011;62853;46.166;3.640;2023-01-25T12:45:23;75.15;;;37.65;;
74102;SDS011;62853;46.166;3.640;2023-01-25T12:50:29;70.90;;;34.67;;
74102;SDS011;62853;46.166;3.640;2023-01-25T12:55:31;64.65;;;31.25;;
74102;SDS011;62853;46.166;3.640;2023-01-25T12:57:59;74.13;;;37.85;;
74102;SDS011;62853;46.166;3.640;2023-01-25T13:03:30;81.03;;;40.17;;
74102;SDS011;62853;46.166;3.640;2023-01-25T13:06:25;85.65;;;45.22;;
74102;SDS011;62853;46.166;3.640;2023-01-25T13:11:41;81.32;;;38.10;;
74102;SDS011;62853;46.166;3.640;2023-01-25T13:16:43;76.57;;;35.63;;
74102;SDS011;62853;46.166;3.640;2023-01-25T13:19:19;93.57;;;46.58;;
74102;SDS011;62853;46.166;3.640;2023-01-25T13:21:47;85.13;;;41.58;;
74102;SDS011;62853;46.166;3.640;2023-01-25T13:26:46;76.60;;;36.97;;
74102;SDS011;62853;46.166;3.640;2023-01-25T13:32:03;73.45;;;35.40;;
74102;SDS011;62853;46.166;3.640;2023-01-25T13:44:36;78.97;;;36.55;;
74102;SDS011;62853;46.166;3.640;2023-01-25T13:47:08;78.63;;;39.10;;
74102;SDS011;62853;46.166;3.640;2023-01-25T13:49:38;76.75;;;37.65;;
74102;SDS011;62853;46.166;3.640;2023-01-25T13:52:19;79.95;;;41.50;;
74102;SDS011;62853;46.166;3.640;2023-01-25T13:54:47;81.55;;;37.65;;
74102;SDS011;62853;46.166;3.640;2023-01-25T13:57:17;86.50;;;44.78;;
74102;SDS011;62853;46.166;3.640;2023-01-25T13:59:44;87.18;;;43.03;;
74102;SDS011;62853;46.166;3.640;2023-01-25T14:02:11;86.05;;;43.25;;
74102;SDS011;62853;46.166;3.640;2023-01-25T14:04:43;107.20;;;56.90;;
74102;SDS011;62853;46.166;3.640;2023-01-25T14:07:12;95.55;;;44.45;;
74102;SDS011;62853;46.166;3.640;2023-01-25T14:09:44;87.40;;;44.17;;
74102;SDS011;62853;46.166;3.640;2023-01-25T14:12:18;84.13;;;41.17;;
74102;SDS011;62853;46.166;3.640;2023-01-25T14:14:55;76.55;;;36.72;;
74102;SDS011;62853;46.166;3.640;2023-01-25T14:17:21;76.05;;;37.42;;
74102;SDS011;62853;46.166;3.640;2023-01-25T14:19:48;71.65;;;36.05;;
74102;SDS011;62853;46.166;3.640;2023-01-25T14:24:44;72.90;;;34.58;;
74102;SDS011;62853;46.166;3.640;2023-01-25T14:27:13;83.88;;;39.75;;
74102;SDS011;62853;46.166;3.640;2023-01-25T14:29:40;75.90;;;37.22;;
74102;SDS011;62853;46.166;3.640;2023-01-25T14:32:15;82.68;;;37.72;;
74102;SDS011;62853;46.166;3.640;2023-01-25T14:34:44;78.50;;;36.58;;
74102;SDS011;62853;46.166;3.640;2023-01-25T14:37:15;89.30;;;40.20;;
74102;SDS011;62853;46.166;3.640;2023-01-25T14:39:45;82.60;;;38.25;;
74102;SDS011;62853;46.166;3.640;2023-01-25T14:42:12;86.95;;;40.22;;
74102;SDS011;62853;46.166;3.640;2023-01-25T14:44:39;85.40;;;40.38;;
74102;SDS011;62853;46.166;3.640;2023-01-25T14:49:54;80.93;;;39.42;;
74102;SDS011;62853;46.166;3.640;2023-01-25T14:52:20;80.00;;;37.55;;
74102;SDS011;62853;46.166;3.640;2023-01-25T14:54:52;81.57;;;38.72;;
74102;SDS011;62853;46.166;3.640;2023-01-25T14:59:48;76.20;;;34.92;;
74102;SDS011;62853;46.166;3.640;2023-01-25T15:02:18;75.57;;;36.00;;
74102;SDS011;62853;46.166;3.640;2023-01-25T15:04:55;82.32;;;38.13;;
74102;SDS011;62853;46.166;3.640;2023-01-25T15:07:31;88.03;;;40.97;;
74102;SDS011;62853;46.166;3.640;2023-01-25T15:10:29;86.78;;;40.78;;
74102;SDS011;62853;46.166;3.640;2023-01-25T15:13:00;91.65;;;42.10;;
74102;SDS011;62853;46.166;3.640;2023-01-25T15:23:39;71.75;;;33.08;;
74102;SDS011;62853;46.166;3.640;2023-01-25T15:26:13;71.72;;;33.40;;
74102;SDS011;62853;46.166;3.640;2023-01-25T15:28:43;75.45;;;33.83;;
74102;SDS011;62853;46.166;3.640;2023-01-25T15:31:11;79.80;;;35.90;;
74102;SDS011;62853;46.166;3.640;2023-01-25T15:33:44;71.80;;;34.65;;
74102;SDS011;62853;46.166;3.640;2023-01-25T15:36:10;86.07;;;40.90;;
74102;SDS011;62853;46.166;3.640;2023-01-25T15:38:38;93.72;;;41.75;;
74102;SDS011;62853;46.166;3.640;2023-01-25T15:41:04;92.25;;;41.95;;
74102;SDS011;62853;46.166;3.640;2023-01-25T15:43:29;97.40;;;44.67;;
74102;SDS011;62853;46.166;3.640;2023-01-25T15:45:55;92.80;;;40.13;;
74102;SDS011;62853;46.166;3.640;2023-01-25T15:48:39;88.72;;;43.92;;
74102;SDS011;62853;46.166;3.640;2023-01-25T15:51:06;100.75;;;43.88;;
74102;SDS011;62853;46.166;3.640;2023-01-25T15:53:32;100.40;;;46.17;;
74102;SDS011;62853;46.166;3.640;2023-01-25T15:56:02;101.05;;;44.22;;
74102;SDS011;62853;46.166;3.640;2023-01-25T15:58:30;96.53;;;44.45;;
74102;SDS011;62853;46.166;3.640;2023-01-25T16:00:59;83.95;;;39.47;;
74102;SDS011;62853;46.166;3.640;2023-01-25T16:03:25;82.97;;;36.42;;
74102;SDS011;62853;46.166;3.640;2023-01-25T16:05:55;83.75;;;39.13;;
74102;SDS011;62853;46.166;3.640;2023-01-25T16:08:22;82.40;;;39.40;;
74102;SDS011;62853;46.166;3.640;2023-01-25T16:10:48;101.53;;;44.78;;
74102;SDS011;62853;46.166;3.640;2023-01-25T16:13:13;94.03;;;43.30;;
74102;SDS011;62853;46.166;3.640;2023-01-25T16:15:39;103.63;;;46.17;;
74102;SDS011;62853;46.166;3.640;2023-01-25T16:18:05;101.90;;;49.50;;
74102;SDS011;62853;46.166;3.640;2023-01-25T16:20:31;99.85;;;45.13;;
74102;SDS011;62853;46.166;3.640;2023-01-25T16:22:56;96.28;;;49.15;;
74102;SDS011;62853;46.166;3.640;2023-01-25T16:25:22;106.72;;;47.45;;
74102;SDS011;62853;46.166;3.640;2023-01-25T16:27:48;109.13;;;46.53;;